Time;durP1;ratioP1;P1;durP2;ratioP2;P2;SDS_P1;SDS_P2;PMS_P1;PMS_P2;Temp;Humidity;BMP_temperature;BMP_pressure;BME280_temperature;BME280_humidity;BME280_pressure;Samples;Min_cycle;Max_cycle;Signal;HPM_P1;HPM_P2
2023/06/20 00:00:39;;;;;;;5.40;3.22;;;21.50;54.10;;;;;;5061908;28;20078;-85
2023/06/20 00:03:05;;;;;;;5.20;3.50;;;21.40;53.90;;;;;;5060869;28;20129;-83
2023/06/20 00:05:31;;;;;;;4.43;2.70;;;21.40;54.00;;;;;;5061906;28;20559;-83
2023/06/20 00:07:57;;;;;;;7.28;3.22;;;21.40;54.60;;;;;;5061845;28;20656;-83
2023/06/20 00:10:23;;;;;;;6.68;3.35;;;21.40;54.50;;;;;;5074436;28;20051;-83
2023/06/20 00:12:49;;;;;;;7.60;3.53;;;21.40;54.20;;;;;;5061433;28;20040;-81
2023/06/20 00:15:15;;;;;;;4.18;3.08;;;21.30;54.70;;;;;;5062711;28;20032;-83
2023/06/20 00:17:41;;;;;;;6.18;3.65;;;21.30;55.00;;;;;;5063489;28;20024;-84
2023/06/20 00:20:11;;;;;;;6.88;3.50;;;21.30;55.10;;;;;;5068857;28;20058;-84
2023/06/20 00:22:37;;;;;;;7.53;3.20;;;21.30;55.10;;;;;;5070574;28;20091;-81
2023/06/20 00:25:04;;;;;;;6.82;3.67;;;21.20;54.70;;;;;;5066934;28;20300;-82
2023/06/20 00:27:31;;;;;;;7.18;3.45;;;21.20;54.60;;;;;;5058469;28;20029;-83
2023/06/20 00:29:57;;;;;;;9.27;3.80;;;21.20;54.70;;;;;;5059607;28;20021;-81
2023/06/20 00:32:23;;;;;;;5.93;3.17;;;21.20;54.30;;;;;;5060779;28;20036;-82
2023/06/20 00:34:51;;;;;;;7.78;3.42;;;21.20;54.20;;;;;;5060722;28;20135;-82
2023/06/20 00:37:17;;;;;;;5.15;3.33;;;21.20;54.00;;;;;;5061709;28;20085;-83
2023/06/20 00:39:45;;;;;;;7.93;3.55;;;21.20;53.80;;;;;;5074625;28;20048;-78
2023/06/20 00:42:25;;;;;;;9.13;3.58;;;21.20;53.80;;;;;;5062492;28;20581;-82
2023/06/20 00:44:52;;;;;;;6.22;3.55;;;21.10;53.90;;;;;;5060549;28;20105;-83
2023/06/20 00:47:18;;;;;;;7.15;3.53;;;21.20;53.80;;;;;;5060782;28;20040;-80
2023/06/20 00:49:46;;;;;;;5.88;3.67;;;21.10;53.90;;;;;;5056861;28;20144;-80
2023/06/20 00:52:16;;;;;;;8.38;3.55;;;21.20;54.40;;;;;;5061887;28;20064;-82
2023/06/20 00:54:48;;;;;;;4.45;3.60;;;21.10;54.30;;;;;;5058027;28;20310;-81
2023/06/20 00:57:16;;;;;;;6.47;3.60;;;21.10;54.50;;;;;;5059691;28;20036;-80
2023/06/20 00:59:47;;;;;;;7.88;3.40;;;21.20;54.60;;;;;;5059789;28;20372;-81
2023/06/20 01:02:14;;;;;;;8.18;3.70;;;21.10;54.40;;;;;;5061655;28;20443;-79
2023/06/20 01:04:42;;;;;;;8.00;3.78;;;21.10;54.50;;;;;;5058580;28;20044;-79
2023/06/20 01:07:48;;;;;;;6.03;3.70;;;21.10;54.80;;;;;;5058761;28;20581;-79
2023/06/20 01:10:31;;;;;;;7.97;4.35;;;21.10;54.50;;;;;;5058782;28;20040;-81
2023/06/20 01:13:02;;;;;;;5.65;3.65;;;21.10;54.70;;;;;;5058870;28;20048;-82
2023/06/20 01:15:31;;;;;;;7.18;3.95;;;21.10;55.40;;;;;;5061178;28;20036;-81
2023/06/20 01:18:26;;;;;;;6.05;3.92;;;21.10;55.60;;;;;;5059489;28;20082;-78
2023/06/20 01:21:00;;;;;;;8.02;3.67;;;21.10;55.50;;;;;;5059655;28;20067;-81
2023/06/20 01:23:57;;;;;;;6.70;4.00;;;21.10;56.10;;;;;;5056980;28;20175;-79
2023/06/20 01:26:41;;;;;;;8.93;4.18;;;21.10;56.40;;;;;;5023386;28;20041;-81
2023/06/20 01:29:17;;;;;;;6.15;3.72;;;21.00;56.00;;;;;;5038238;28;20042;-80
2023/06/20 01:31:50;;;;;;;8.70;3.92;;;21.10;55.70;;;;;;5035794;28;20045;-81
2023/06/20 01:34:20;;;;;;;6.10;3.80;;;21.10;55.70;;;;;;5037290;28;20041;-77
2023/06/20 01:36:53;;;;;;;6.78;3.80;;;21.10;55.70;;;;;;5038655;28;20120;-81
2023/06/20 01:39:25;;;;;;;11.55;4.32;;;21.10;55.50;;;;;;5041828;28;20119;-81
2023/06/20 01:41:53;;;;;;;8.27;3.83;;;21.10;55.50;;;;;;5039613;28;20021;-79
2023/06/20 01:44:20;;;;;;;7.22;4.03;;;21.10;55.40;;;;;;5038922;28;20040;-83
2023/06/20 01:46:48;;;;;;;6.50;4.15;;;21.10;55.30;;;;;;5027821;28;20045;-77
2023/06/20 01:49:16;;;;;;;7.13;3.85;;;21.10;55.10;;;;;;5041082;28;20032;-82
2023/06/20 01:51:43;;;;;;;7.20;3.55;;;21.10;54.90;;;;;;5006633;28;20037;-84
2023/06/20 01:54:10;;;;;;;5.68;3.60;;;21.10;54.90;;;;;;5040205;28;20522;-84
2023/06/20 01:56:38;;;;;;;6.20;3.05;;;21.10;54.50;;;;;;5005975;28;20412;-84
2023/06/20 01:59:07;;;;;;;6.93;3.80;;;21.10;54.90;;;;;;5023157;28;20028;-84
2023/06/20 02:01:34;;;;;;;4.63;3.58;;;21.10;55.30;;;;;;5035656;28;20068;-83
2023/06/20 02:04:02;;;;;;;7.78;3.58;;;21.10;55.40;;;;;;5059283;28;20159;-82
2023/06/20 02:06:29;;;;;;;6.13;3.95;;;21.20;55.70;;;;;;5059472;28;20526;-80
2023/06/20 02:08:57;;;;;;;7.68;3.90;;;21.10;55.90;;;;;;5062571;28;20056;-79
2023/06/20 02:11:26;;;;;;;8.73;3.78;;;21.20;56.20;;;;;;5066119;28;20590;-80
2023/06/20 02:13:53;;;;;;;6.97;4.03;;;21.20;55.80;;;;;;5066312;28;20051;-81
2023/06/20 02:16:21;;;;;;;7.07;3.80;;;21.20;56.00;;;;;;5076907;28;20037;-82
2023/06/20 02:18:48;;;;;;;7.93;4.25;;;21.20;55.70;;;;;;5062885;28;20029;-80
2023/06/20 02:21:26;;;;;;;6.80;4.10;;;21.20;55.30;;;;;;5061138;28;20037;-81
2023/06/20 02:23:54;;;;;;;5.95;4.03;;;21.20;55.00;;;;;;5061468;28;20077;-82
2023/06/20 02:26:27;;;;;;;8.00;3.80;;;21.20;54.90;;;;;;5062647;28;20450;-81
2023/06/20 02:28:57;;;;;;;7.70;3.42;;;21.20;55.00;;;;;;5060980;28;20037;-79
2023/06/20 02:31:28;;;;;;;8.63;4.18;;;21.20;54.70;;;;;;5061499;28;20040;-80
2023/06/20 02:33:57;;;;;;;7.50;3.97;;;21.20;54.80;;;;;;5062758;28;20037;-81
2023/06/20 02:36:26;;;;;;;5.85;3.65;;;21.30;54.60;;;;;;5078129;28;20094;-81
2023/06/20 02:38:56;;;;;;;6.82;3.85;;;21.20;54.80;;;;;;5062708;28;20036;-81
2023/06/20 02:41:23;;;;;;;7.68;3.95;;;21.30;54.90;;;;;;5062648;28;20035;-80
2023/06/20 02:43:50;;;;;;;9.48;3.80;;;21.30;55.00;;;;;;5047798;28;20071;-80
2023/06/20 02:46:30;;;;;;;5.80;4.10;;;21.30;55.10;;;;;;5064018;28;20036;-82
2023/06/20 02:49:09;;;;;;;8.50;3.60;;;21.30;54.60;;;;;;5062612;28;20029;-81
2023/06/20 02:51:42;;;;;;;5.72;3.83;;;21.40;54.10;;;;;;5060445;28;20068;-83
2023/06/20 02:54:20;;;;;;;7.88;3.72;;;21.40;53.60;;;;;;5075950;28;20595;-81
2023/06/20 02:56:55;;;;;;;6.68;4.22;;;21.40;53.40;;;;;;5065266;28;20036;-79
2023/06/20 02:59:25;;;;;;;5.78;4.10;;;21.50;53.20;;;;;;5059149;28;20407;-84
2023/06/20 03:01:56;;;;;;;7.82;4.20;;;21.50;53.20;;;;;;5060277;28;20044;-80
2023/06/20 03:04:26;;;;;;;7.15;4.43;;;21.50;52.90;;;;;;5077679;28;20062;-85
2023/06/20 03:06:54;;;;;;;7.53;3.60;;;21.50;52.90;;;;;;5061164;28;20028;-83
2023/06/20 03:09:22;;;;;;;6.15;3.75;;;21.60;52.80;;;;;;5075777;28;20411;-84
2023/06/20 03:11:48;;;;;;;6.80;3.95;;;21.60;52.70;;;;;;5075362;28;20403;-84
2023/06/20 03:14:14;;;;;;;5.97;3.53;;;21.60;52.50;;;;;;5076739;28;20033;-83
2023/06/20 03:16:43;;;;;;;8.18;3.58;;;21.70;52.70;;;;;;5063742;28;20025;-83
2023/06/20 03:19:12;;;;;;;9.93;3.70;;;21.70;52.70;;;;;;5063881;28;20075;-83
2023/06/20 03:21:40;;;;;;;5.75;3.58;;;21.80;52.80;;;;;;5079961;28;20115;-82
2023/06/20 03:24:08;;;;;;;7.13;3.88;;;21.80;52.80;;;;;;5057379;28;20033;-77
2023/06/20 03:26:36;;;;;;;6.55;3.40;;;21.80;52.70;;;;;;5047582;28;20029;-82
2023/06/20 03:29:02;;;;;;;6.22;3.88;;;21.90;52.60;;;;;;5058480;28;20032;-84
2023/06/20 03:31:29;;;;;;;5.70;3.75;;;21.90;52.40;;;;;;5064590;28;20037;-83
2023/06/20 03:33:57;;;;;;;5.78;3.75;;;21.90;52.40;;;;;;5050139;28;20047;-83
2023/06/20 03:36:23;;;;;;;4.95;3.13;;;22.00;52.30;;;;;;5079978;28;20041;-80
2023/06/20 03:38:52;;;;;;;6.70;3.38;;;22.00;52.20;;;;;;5063826;28;20066;-80
2023/06/20 03:41:19;;;;;;;5.25;3.05;;;22.00;52.00;;;;;;5063170;28;20135;-82
2023/06/20 03:43:46;;;;;;;5.70;3.40;;;22.10;52.10;;;;;;5063772;28;20835;-80
2023/06/20 03:46:12;;;;;;;7.05;3.60;;;22.10;52.10;;;;;;5062679;28;20455;-80
2023/06/20 03:48:38;;;;;;;7.05;3.20;;;22.20;52.10;;;;;;5061716;28;20086;-80
2023/06/20 03:51:07;;;;;;;8.15;3.58;;;22.20;52.00;;;;;;5063094;28;20047;-80
2023/06/20 03:53:33;;;;;;;7.20;3.28;;;22.30;52.00;;;;;;5078798;28;20033;-81
2023/06/20 03:55:59;;;;;;;4.20;3.28;;;22.30;51.70;;;;;;5077312;28;20040;-79
2023/06/20 03:58:25;;;;;;;6.25;3.20;;;22.30;51.60;;;;;;5062206;28;20033;-80
2023/06/20 04:00:51;;;;;;;5.78;3.22;;;22.30;51.40;;;;;;5063970;28;20035;-78
2023/06/20 04:03:17;;;;;;;5.45;3.00;;;22.30;51.20;;;;;;5063198;28;20458;-78
2023/06/20 04:05:43;;;;;;;5.45;2.97;;;22.40;51.20;;;;;;5078594;28;20032;-80
2023/06/20 04:08:11;;;;;;;6.88;3.35;;;22.50;51.00;;;;;;5076589;28;20033;-80
2023/06/20 04:10:37;;;;;;;4.35;3.35;;;22.50;51.10;;;;;;5062705;28;20592;-79
2023/06/20 04:13:03;;;;;;;3.38;2.70;;;22.70;51.20;;;;;;5064167;28;20459;-77
2023/06/20 04:15:29;;;;;;;3.60;2.83;;;22.70;51.10;;;;;;5066362;28;20672;-77
2023/06/20 04:17:56;;;;;;;5.10;2.90;;;22.90;51.30;;;;;;5064840;28;20020;-77
2023/06/20 04:20:22;;;;;;;6.43;2.60;;;23.00;51.30;;;;;;5067159;28;20037;-78
2023/06/20 04:22:48;;;;;;;4.72;2.97;;;23.20;51.40;;;;;;5066303;28;20067;-77
2023/06/20 04:25:15;;;;;;;2.50;2.30;;;23.30;51.20;;;;;;5065426;28;20621;-77
2023/06/20 04:27:42;;;;;;;4.15;2.40;;;23.40;51.20;;;;;;5064197;28;20135;-77
2023/06/20 04:30:09;;;;;;;2.95;2.42;;;23.50;51.00;;;;;;5066218;28;20035;-79
2023/06/20 04:32:37;;;;;;;3.35;2.40;;;23.70;50.90;;;;;;5067070;28;20056;-79
2023/06/20 04:35:05;;;;;;;3.05;2.47;;;23.80;50.80;;;;;;5049893;28;20115;-80
2023/06/20 04:37:32;;;;;;;3.45;2.38;;;23.90;50.70;;;;;;5081460;28;20439;-79
2023/06/20 04:40:01;;;;;;;5.05;2.33;;;24.00;50.70;;;;;;5063193;28;20032;-78
2023/06/20 04:42:27;;;;;;;6.28;2.72;;;24.20;50.90;;;;;;5057320;28;20491;-76
2023/06/20 04:44:54;;;;;;;5.65;2.40;;;24.20;50.80;;;;;;5057588;28;20043;-80
2023/06/20 04:47:20;;;;;;;3.30;2.22;;;24.30;50.80;;;;;;5077462;28;20556;-79
2023/06/20 04:49:46;;;;;;;5.15;2.50;;;24.50;51.10;;;;;;5062603;28;20040;-76
2023/06/20 04:52:12;;;;;;;3.38;2.40;;;24.60;51.40;;;;;;5060225;28;20053;-79
2023/06/20 04:54:38;;;;;;;4.35;2.20;;;24.70;51.40;;;;;;5058900;28;20036;-79
2023/06/20 04:57:04;;;;;;;3.25;2.50;;;24.80;51.60;;;;;;5076247;28;20419;-79
2023/06/20 04:59:30;;;;;;;3.30;2.22;;;24.90;51.40;;;;;;5062841;28;20462;-78
2023/06/20 05:01:56;;;;;;;3.85;2.20;;;25.00;51.40;;;;;;5075021;28;20029;-79
2023/06/20 05:04:22;;;;;;;5.10;2.63;;;25.10;51.40;;;;;;5058906;28;20055;-79
2023/06/20 05:06:48;;;;;;;2.85;1.98;;;25.30;51.30;;;;;;5059692;28;20311;-79
2023/06/20 05:09:14;;;;;;;2.97;2.30;;;25.40;51.50;;;;;;5062562;28;20033;-79
2023/06/20 05:11:41;;;;;;;2.83;2.28;;;25.40;51.40;;;;;;5074408;28;20049;-80
2023/06/20 05:14:07;;;;;;;3.75;2.50;;;25.60;51.30;;;;;;5058311;28;20375;-78
2023/06/20 05:16:33;;;;;;;4.82;2.10;;;25.70;51.30;;;;;;5059509;28;20043;-79
2023/06/20 05:18:59;;;;;;;2.67;2.03;;;25.80;51.20;;;;;;5061067;28;20033;-76
2023/06/20 05:21:25;;;;;;;2.15;1.95;;;25.90;51.00;;;;;;5057930;28;20098;-78
2023/06/20 05:23:50;;;;;;;4.28;2.38;;;26.00;50.80;;;;;;5061007;28;20052;-78
2023/06/20 05:26:16;;;;;;;3.42;2.20;;;26.10;50.80;;;;;;5059632;28;20476;-78
2023/06/20 05:28:42;;;;;;;3.47;2.38;;;26.20;50.60;;;;;;5060868;28;20123;-77
2023/06/20 05:31:11;;;;;;;2.78;2.13;;;26.30;50.10;;;;;;5062143;28;20041;-76
2023/06/20 05:33:37;;;;;;;4.03;2.28;;;26.40;50.30;;;;;;5058273;28;20601;-80
2023/06/20 05:36:04;;;;;;;3.20;2.15;;;26.50;50.10;;;;;;5045754;28;20063;-80
2023/06/20 05:38:31;;;;;;;2.30;2.10;;;26.60;50.00;;;;;;5059538;28;20036;-79
2023/06/20 05:41:00;;;;;;;2.60;1.70;;;26.70;49.90;;;;;;5062805;28;20037;-79
2023/06/20 05:43:26;;;;;;;3.50;2.10;;;26.80;49.60;;;;;;5057601;28;20040;-77
2023/06/20 05:45:52;;;;;;;2.45;1.98;;;26.90;49.60;;;;;;5057075;28;20123;-79
2023/06/20 05:48:18;;;;;;;2.30;1.92;;;27.00;49.60;;;;;;5062284;28;20131;-77
2023/06/20 05:50:44;;;;;;;3.65;2.05;;;27.10;49.40;;;;;;5060196;28;20112;-76
2023/06/20 05:53:10;;;;;;;2.83;2.15;;;27.10;49.30;;;;;;5058186;28;21181;-78
2023/06/20 05:55:36;;;;;;;5.03;2.20;;;27.20;49.20;;;;;;5058288;28;20404;-78
2023/06/20 05:58:02;;;;;;;2.42;2.17;;;27.30;49.10;;;;;;5058274;28;20033;-77
2023/06/20 06:00:28;;;;;;;5.00;2.25;;;27.40;49.00;;;;;;5057879;28;20079;-78
2023/06/20 06:02:54;;;;;;;3.38;2.13;;;27.50;48.80;;;;;;5060383;28;20102;-78
2023/06/20 06:05:20;;;;;;;2.72;1.90;;;27.60;48.60;;;;;;5060352;28;20412;-76
2023/06/20 06:07:46;;;;;;;2.28;1.80;;;27.60;48.50;;;;;;5058242;28;20423;-76
2023/06/20 06:10:12;;;;;;;3.92;1.92;;;27.70;48.50;;;;;;5062630;28;20535;-77
2023/06/20 06:12:40;;;;;;;3.72;1.85;;;27.80;48.20;;;;;;5060479;28;20045;-78
2023/06/20 06:15:08;;;;;;;3.03;1.67;;;27.90;48.10;;;;;;5060175;28;20715;-77
2023/06/20 06:17:34;;;;;;;4.47;1.80;;;28.00;48.00;;;;;;5059626;28;20031;-80
2023/06/20 06:19:59;;;;;;;2.13;1.60;;;28.00;47.90;;;;;;5074636;28;20123;-78
2023/06/20 06:22:26;;;;;;;6.43;2.38;;;28.10;47.80;;;;;;5060571;28;20398;-78
2023/06/20 06:24:52;;;;;;;15.43;2.40;;;28.20;47.70;;;;;;5063304;28;20032;-80
2023/06/20 06:27:17;;;;;;;5.35;1.70;;;28.20;47.50;;;;;;5062067;28;20455;-80
2023/06/20 06:29:44;;;;;;;3.95;1.77;;;28.30;47.50;;;;;;5063853;28;20035;-79
2023/06/20 06:32:11;;;;;;;3.13;1.90;;;28.30;47.40;;;;;;5076794;28;20190;-79
2023/06/20 06:34:38;;;;;;;3.33;1.90;;;28.40;47.30;;;;;;5060277;28;20029;-79
2023/06/20 06:37:04;;;;;;;6.20;2.42;;;28.40;46.80;;;;;;5063620;28;20028;-79
2023/06/20 06:39:30;;;;;;;3.65;1.50;;;28.30;47.00;;;;;;5060814;28;20032;-78
2023/06/20 06:41:56;;;;;;;3.17;1.92;;;28.30;47.00;;;;;;5063619;28;20475;-81
2023/06/20 06:44:23;;;;;;;4.13;2.22;;;28.40;47.00;;;;;;5062889;28;20526;-79
2023/06/20 06:46:49;;;;;;;3.35;1.70;;;28.50;46.90;;;;;;5062839;28;20056;-80
2023/06/20 06:49:14;;;;;;;3.47;1.40;;;28.50;46.70;;;;;;5062246;28;20037;-80
2023/06/20 06:51:41;;;;;;;2.03;1.67;;;28.40;46.60;;;;;;5064735;28;20047;-77
2023/06/20 06:54:07;;;;;;;5.50;1.85;;;28.40;46.50;;;;;;5060326;28;20111;-76
2023/06/20 06:56:33;;;;;;;4.47;1.73;;;28.30;46.40;;;;;;5061270;28;20107;-79
2023/06/20 06:59:00;;;;;;;2.83;1.80;;;28.30;46.50;;;;;;5063492;28;20488;-82
2023/06/20 07:01:29;;;;;;;3.42;1.88;;;28.30;46.30;;;;;;5060022;28;20060;-78
2023/06/20 07:03:56;;;;;;;5.03;1.88;;;28.30;46.20;;;;;;5060919;28;20028;-81
2023/06/20 07:06:22;;;;;;;3.33;1.75;;;28.30;45.80;;;;;;5061059;28;20035;-80
2023/06/20 07:08:48;;;;;;;4.80;2.20;;;28.30;45.60;;;;;;5061536;28;20059;-78
2023/06/20 07:11:13;;;;;;;3.13;1.80;;;28.30;45.50;;;;;;5063709;28;20052;-81
2023/06/20 07:13:39;;;;;;;4.35;1.50;;;28.30;45.50;;;;;;5060202;28;20037;-79
2023/06/20 07:16:05;;;;;;;5.47;1.88;;;28.30;45.60;;;;;;5063790;28;20033;-81
2023/06/20 07:18:32;;;;;;;4.50;1.67;;;28.40;45.20;;;;;;5063136;28;20040;-82
2023/06/20 07:20:59;;;;;;;6.70;1.70;;;28.40;45.20;;;;;;5061486;28;20563;-83
2023/06/20 07:23:25;;;;;;;12.68;2.33;;;28.40;45.50;;;;;;5063564;28;20040;-83
2023/06/20 07:25:51;;;;;;;4.90;1.80;;;28.50;45.20;;;;;;5064049;28;20343;-81
2023/06/20 07:28:17;;;;;;;6.00;2.08;;;28.50;43.70;;;;;;5061818;28;20644;-81
2023/06/20 07:30:43;;;;;;;6.70;1.85;;;28.50;44.50;;;;;;5060441;28;20174;-84
2023/06/20 07:33:09;;;;;;;1.90;1.70;;;28.50;45.00;;;;;;5064432;28;20115;-83
2023/06/20 07:35:35;;;;;;;5.20;1.70;;;28.50;45.20;;;;;;5060894;28;20116;-82
2023/06/20 07:38:01;;;;;;;5.03;1.50;;;28.50;45.30;;;;;;5058572;28;20032;-80
2023/06/20 07:40:27;;;;;;;4.43;1.77;;;28.50;44.90;;;;;;5058942;28;20191;-79
2023/06/20 07:42:53;;;;;;;7.30;1.77;;;28.50;45.20;;;;;;5061136;28;20579;-81
2023/06/20 07:45:19;;;;;;;3.40;1.70;;;28.50;45.40;;;;;;5060670;28;20024;-80
2023/06/20 07:47:44;;;;;;;5.53;2.00;;;28.50;45.50;;;;;;5059605;28;20074;-79
2023/06/20 07:50:10;;;;;;;3.95;1.70;;;28.40;45.40;;;;;;5058873;28;20097;-77
2023/06/20 07:52:36;;;;;;;7.18;1.83;;;28.30;44.90;;;;;;5062510;28;20043;-77
2023/06/20 07:55:04;;;;;;;4.78;1.80;;;28.20;45.20;;;;;;5063156;28;20033;-77
2023/06/20 07:57:30;;;;;;;6.80;1.90;;;28.10;45.30;;;;;;5060927;28;20117;-77
2023/06/20 07:59:56;;;;;;;6.85;1.63;;;28.00;46.10;;;;;;5062445;28;20554;-76
2023/06/20 08:02:22;;;;;;;3.70;1.70;;;28.00;46.30;;;;;;5059738;28;20029;-77
2023/06/20 08:04:48;;;;;;;3.90;1.95;;;27.90;46.40;;;;;;5060955;28;20089;-77
2023/06/20 08:07:15;;;;;;;4.80;1.95;;;27.90;46.70;;;;;;5059703;28;20040;-76
2023/06/20 08:09:41;;;;;;;5.15;1.58;;;27.90;47.00;;;;;;5062184;28;20478;-76
2023/06/20 08:12:09;;;;;;;4.80;1.55;;;27.90;47.10;;;;;;5062402;28;20048;-76
2023/06/20 08:14:37;;;;;;;5.70;2.00;;;27.80;47.20;;;;;;5059924;28;20063;-75
2023/06/20 08:17:03;;;;;;;6.95;1.63;;;27.80;47.30;;;;;;5060277;28;20120;-76
2023/06/20 08:19:29;;;;;;;6.80;1.63;;;27.80;47.40;;;;;;5058992;28;20518;-77
2023/06/20 08:21:55;;;;;;;4.55;1.73;;;27.70;47.40;;;;;;5058925;28;20032;-78
2023/06/20 08:24:21;;;;;;;7.35;1.70;;;27.80;47.40;;;;;;5059189;28;20036;-79
2023/06/20 08:26:47;;;;;;;4.85;1.52;;;27.70;47.40;;;;;;5062311;28;20123;-77
2023/06/20 08:29:12;;;;;;;8.55;1.80;;;27.70;47.30;;;;;;5061004;28;20453;-78
2023/06/20 08:31:39;;;;;;;5.68;1.67;;;27.70;47.30;;;;;;5062137;28;20036;-78
2023/06/20 08:34:05;;;;;;;7.47;1.63;;;27.70;47.30;;;;;;5061380;28;20131;-79
2023/06/20 08:36:32;;;;;;;8.27;1.80;;;27.70;47.20;;;;;;5059704;28;20036;-78
2023/06/20 08:38:59;;;;;;;2.50;1.75;;;27.70;47.00;;;;;;5059371;28;20075;-78
2023/06/20 08:41:25;;;;;;;6.22;1.70;;;27.70;47.00;;;;;;5059408;28;20043;-78
2023/06/20 08:43:52;;;;;;;7.80;1.90;;;27.70;46.90;;;;;;5057439;28;20040;-77
2023/06/20 08:46:18;;;;;;;4.80;1.80;;;27.70;46.80;;;;;;5058296;28;20043;-76
2023/06/20 08:48:46;;;;;;;4.72;1.50;;;27.70;46.10;;;;;;5060365;28;20043;-79
2023/06/20 08:51:15;;;;;;;5.03;1.98;;;27.60;45.90;;;;;;5059373;28;20044;-78
2023/06/20 08:53:48;;;;;;;4.15;1.67;;;27.60;46.50;;;;;;5061394;28;20078;-78
2023/06/20 08:56:18;;;;;;;6.20;1.58;;;27.60;46.60;;;;;;5057283;28;20066;-78
2023/06/20 08:58:44;;;;;;;5.72;2.10;;;27.60;46.40;;;;;;5064552;28;20174;-78
2023/06/20 09:01:10;;;;;;;2.22;1.75;;;27.60;45.80;;;;;;5068427;28;20033;-79
2023/06/20 09:03:36;;;;;;;5.80;1.90;;;27.60;45.90;;;;;;5069244;28;20036;-79
2023/06/20 09:06:03;;;;;;;5.18;1.90;;;27.50;46.40;;;;;;5066734;28;20044;-78
2023/06/20 09:08:40;;;;;;;6.03;1.70;;;27.50;46.60;;;;;;5065775;28;20415;-79
2023/06/20 09:11:11;;;;;;;5.90;1.90;;;27.50;46.30;;;;;;5068090;28;20048;-79
2023/06/20 09:13:38;;;;;;;3.83;2.03;;;27.50;46.70;;;;;;5070200;28;20132;-78
2023/06/20 09:16:06;;;;;;;6.20;1.52;;;27.50;45.70;;;;;;5068906;28;20389;-78
2023/06/20 09:18:34;;;;;;;4.55;2.08;;;27.50;46.30;;;;;;5069843;28;20063;-77
2023/06/20 09:21:02;;;;;;;5.90;1.77;;;27.50;46.50;;;;;;5065414;28;20055;-78
2023/06/20 09:23:29;;;;;;;5.70;2.30;;;27.50;46.70;;;;;;5068554;28;20174;-78
2023/06/20 09:26:14;;;;;;;11.35;2.53;;;27.50;47.00;;;;;;5066029;28;20127;-77
2023/06/20 09:28:40;;;;;;;4.22;2.20;;;27.40;46.50;;;;;;5061374;28;20511;-76
2023/06/20 09:31:06;;;;;;;2.33;1.70;;;27.40;47.00;;;;;;5062305;28;20044;-77
2023/06/20 09:33:38;;;;;;;6.47;2.30;;;27.40;46.30;;;;;;5060700;28;20037;-77
2023/06/20 09:36:15;;;;;;;4.78;1.98;;;27.40;46.80;;;;;;5060659;28;20033;-77
2023/06/20 09:38:42;;;;;;;4.80;2.80;;;27.40;43.60;;;;;;5059549;28;20043;-84
2023/06/20 09:41:08;;;;;;;6.65;2.80;;;27.40;43.50;;;;;;5060278;28;20041;-88
2023/06/20 09:43:34;;;;;;;10.48;2.50;;;27.40;45.20;;;;;;5057157;28;20500;-85
2023/06/20 09:46:01;;;;;;;6.53;2.17;;;27.40;46.20;;;;;;5059143;28;20037;-85
2023/06/20 09:48:28;;;;;;;9.48;2.25;;;27.40;46.30;;;;;;5059158;28;20036;-81
2023/06/20 09:50:55;;;;;;;4.72;2.60;;;27.40;46.80;;;;;;5059080;28;20040;-86
2023/06/20 09:53:33;;;;;;;6.35;2.15;;;27.40;46.60;;;;;;5060220;28;20530;-85
2023/06/20 09:56:01;;;;;;;10.35;2.65;;;27.40;46.10;;;;;;5059748;28;20031;-85
2023/06/20 09:58:29;;;;;;;9.00;2.42;;;27.40;46.80;;;;;;5061478;28;20040;-79
2023/06/20 10:00:58;;;;;;;6.55;2.20;;;27.40;47.10;;;;;;5064549;28;20422;-81
2023/06/20 10:03:25;;;;;;;7.40;2.45;;;27.40;47.00;;;;;;5063333;28;20041;-82
2023/06/20 10:05:52;;;;;;;5.72;2.40;;;27.40;46.90;;;;;;5062978;28;20045;-80
2023/06/20 10:08:19;;;;;;;10.23;3.33;;;27.40;46.90;;;;;;5062416;28;20083;-80
2023/06/20 10:10:44;;;;;;;12.30;4.15;;;27.40;46.50;;;;;;5062048;28;20074;-88
2023/06/20 10:13:11;;;;;;;9.05;3.67;;;27.40;45.80;;;;;;5062913;28;20404;-88
2023/06/20 10:15:38;;;;;;;9.52;3.20;;;27.40;44.90;;;;;;5062583;28;20462;-83
2023/06/20 10:18:33;;;;;;;5.65;2.83;;;27.40;45.30;;;;;;5064013;28;20047;-81
2023/06/20 10:21:01;;;;;;;;;;;27.40;44.80;;;;;;5080447;28;20411;-85
2023/06/20 10:23:31;;;;;;;7.38;2.53;;;27.40;45.90;;;;;;5066488;28;19923;-84
2023/06/20 10:25:58;;;;;;;6.00;2.78;;;27.40;46.20;;;;;;5077726;28;20040;-83
2023/06/20 10:28:24;;;;;;;11.57;2.95;;;27.40;45.10;;;;;;5062176;28;20068;-80
2023/06/20 10:30:50;;;;;;;7.93;2.47;;;27.40;46.20;;;;;;5063056;28;20033;-81
2023/06/20 10:33:39;;;;;;;13.65;2.90;;;27.40;44.70;;;;;;5062728;28;20033;-81
2023/06/20 10:36:12;;;;;;;7.40;3.00;;;27.30;45.70;;;;;;5060152;28;20144;-76
2023/06/20 10:38:59;;;;;;;9.60;3.95;;;27.30;46.70;;;;;;5062600;28;20021;-81
2023/06/20 10:41:27;;;;;;;7.30;3.97;;;27.30;47.30;;;;;;5062413;28;20063;-81
2023/06/20 10:44:00;;;;;;;7.82;4.22;;;27.30;47.10;;;;;;5061738;28;20033;-80
2023/06/20 10:46:35;;;;;;;10.63;4.45;;;27.30;47.40;;;;;;5064576;28;20036;-82
2023/06/20 10:49:05;;;;;;;8.60;4.00;;;27.30;47.00;;;;;;5061727;28;20493;-81
2023/06/20 10:51:41;;;;;;;9.60;3.85;;;27.30;46.70;;;;;;5060045;28;20127;-81
2023/06/20 10:54:11;;;;;;;6.93;3.75;;;27.30;45.70;;;;;;5062040;28;20040;-79
2023/06/20 10:56:37;;;;;;;5.90;4.22;;;27.30;46.50;;;;;;5062079;28;20625;-81
2023/06/20 10:59:18;;;;;;;6.50;4.15;;;27.30;46.80;;;;;;5061974;28;20036;-81
2023/06/20 11:01:44;;;;;;;6.78;4.35;;;27.30;46.90;;;;;;5062921;28;20047;-81
2023/06/20 11:04:15;;;;;;;8.05;4.38;;;27.30;46.80;;;;;;5060482;28;20036;-80
2023/06/20 11:06:42;;;;;;;8.02;4.68;;;27.30;46.90;;;;;;5061454;28;20091;-81
2023/06/20 11:09:26;;;;;;;7.68;4.10;;;27.30;46.90;;;;;;5061619;28;20542;-78
2023/06/20 11:11:52;;;;;;;5.50;4.18;;;27.30;46.80;;;;;;5057695;28;20059;-80
2023/06/20 11:14:20;;;;;;;7.38;3.60;;;27.20;46.90;;;;;;5064728;28;20025;-81
2023/06/20 11:16:48;;;;;;;5.53;3.67;;;27.20;46.60;;;;;;5060936;28;20024;-80
2023/06/20 11:19:14;;;;;;;5.97;3.88;;;27.30;46.50;;;;;;5060472;28;20036;-79
2023/06/20 11:21:41;;;;;;;6.53;3.80;;;27.20;46.50;;;;;;5059388;28;20041;-80
2023/06/20 11:24:07;;;;;;;6.30;3.50;;;27.20;45.80;;;;;;5062843;28;20036;-80
2023/06/20 11:26:34;;;;;;;6.28;3.85;;;27.20;46.60;;;;;;5061315;28;20089;-80
2023/06/20 11:29:01;;;;;;;6.82;3.95;;;27.20;46.80;;;;;;5062446;28;20093;-77
2023/06/20 11:31:27;;;;;;;4.38;3.35;;;27.20;46.60;;;;;;5077156;28;20043;-78
2023/06/20 11:34:10;;;;;;;7.50;3.40;;;27.20;46.80;;;;;;5060437;28;20032;-80
2023/06/20 11:36:38;;;;;;;5.15;3.53;;;27.20;46.80;;;;;;5062003;28;20028;-78
2023/06/20 11:39:09;;;;;;;5.65;3.22;;;27.20;46.90;;;;;;5062393;28;20107;-77
2023/06/20 11:41:35;;;;;;;5.90;3.30;;;27.10;45.80;;;;;;5060580;28;20036;-81
2023/06/20 11:44:03;;;;;;;6.03;3.03;;;27.10;45.60;;;;;;5060511;28;20029;-78
2023/06/20 11:46:29;;;;;;;4.53;3.17;;;27.10;45.70;;;;;;5059982;28;20490;-79
2023/06/20 11:48:58;;;;;;;4.07;3.03;;;27.10;44.70;;;;;;5061373;28;20056;-81
2023/06/20 11:51:25;;;;;;;3.72;2.97;;;27.10;44.00;;;;;;5060480;28;20040;-80
2023/06/20 11:54:02;;;;;;;4.72;3.15;;;27.00;44.10;;;;;;5064815;28;20036;-80
2023/06/20 11:56:28;;;;;;;3.47;2.60;;;27.00;44.30;;;;;;5059991;28;20041;-79
2023/06/20 11:58:53;;;;;;;4.78;2.90;;;26.90;44.60;;;;;;5061527;28;20573;-81
2023/06/20 12:01:22;;;;;;;6.57;3.05;;;26.80;45.30;;;;;;5058989;28;20131;-80
2023/06/20 12:04:08;;;;;;;3.70;2.70;;;26.70;45.60;;;;;;5060349;28;20040;-76
2023/06/20 12:06:36;;;;;;;4.68;3.00;;;26.60;46.20;;;;;;5061078;28;20507;-82
2023/06/20 12:09:15;;;;;;;3.72;2.67;;;26.60;46.30;;;;;;5063065;28;20086;-84
2023/06/20 12:11:55;;;;;;;3.85;2.53;;;26.50;46.40;;;;;;5062446;28;20048;-85
2023/06/20 12:14:23;;;;;;;4.18;2.65;;;26.40;45.90;;;;;;5063195;28;20371;-82
2023/06/20 12:16:50;;;;;;;8.77;3.00;;;26.30;46.10;;;;;;5059339;28;20420;-81
2023/06/20 12:19:19;;;;;;;4.82;3.08;;;26.30;46.00;;;;;;5077018;28;20037;-82
2023/06/20 12:21:45;;;;;;;5.47;2.90;;;26.30;46.30;;;;;;5059741;28;20033;-79
2023/06/20 12:24:12;;;;;;;4.97;2.40;;;26.20;46.60;;;;;;5059995;28;20067;-79
2023/06/20 12:26:38;;;;;;;4.65;2.72;;;26.20;46.40;;;;;;5061421;28;20029;-79
2023/06/20 12:29:05;;;;;;;5.43;2.83;;;26.20;46.30;;;;;;5059524;28;20033;-79
2023/06/20 12:31:32;;;;;;;3.05;2.50;;;26.20;46.30;;;;;;5060090;28;20077;-82
2023/06/20 12:33:58;;;;;;;8.75;2.50;;;26.10;45.80;;;;;;5059657;28;20088;-80
2023/06/20 12:36:24;;;;;;;6.90;2.60;;;26.10;46.10;;;;;;5061301;28;20056;-83
2023/06/20 12:38:50;;;;;;;3.83;2.20;;;26.10;46.70;;;;;;5063515;28;20080;-82
2023/06/20 12:41:17;;;;;;;3.92;2.30;;;26.10;46.60;;;;;;5069093;28;20041;-77
2023/06/20 12:43:43;;;;;;;3.05;2.58;;;26.10;47.00;;;;;;5058370;28;20111;-77
2023/06/20 12:46:10;;;;;;;3.53;2.55;;;26.20;47.00;;;;;;5059896;28;20037;-80
2023/06/20 12:48:36;;;;;;;4.82;2.45;;;26.10;47.30;;;;;;5059409;28;20044;-74
2023/06/20 12:51:02;;;;;;;3.25;2.47;;;26.00;47.30;;;;;;5060211;28;20040;-76